createdAt,value
2022-08-11T00:01:27.771Z,102013.75
2022-08-11T00:04:01.317Z,102018.13
2022-08-11T00:06:35.180Z,102012.63
2022-08-11T00:09:07.401Z,102015.91
2022-08-11T00:11:50.223Z,102022.16
2022-08-11T00:14:33.611Z,102021.88
2022-08-11T00:17:09.660Z,102030.03
2022-08-11T00:20:11.836Z,102027.88
2022-08-11T00:22:31.214Z,102022.97
2022-08-11T00:25:02.449Z,102014.25
2022-08-11T00:27:39.312Z,102022.69
2022-08-11T00:30:11.812Z,102019.66
2022-08-11T00:32:55.617Z,102015.59
2022-08-11T00:35:51.762Z,102027.78
2022-08-11T00:38:17.381Z,102017.72
2022-08-11T00:41:40.946Z,102022.31
2022-08-11T00:44:28.508Z,102024.22
2022-08-11T00:47:05.337Z,102015.75
2022-08-11T00:50:33.767Z,102024.19
2022-08-11T00:53:31.811Z,102019.81
2022-08-11T00:57:36.754Z,102028.44
2022-08-11T01:00:23.485Z,102021.63
2022-08-11T01:03:18.505Z,102028.66
2022-08-11T01:05:56.857Z,102027.56
2022-08-11T01:09:10.394Z,102031.63
2022-08-11T01:12:38.797Z,102027.53
2022-08-11T01:15:40.545Z,102027.75
2022-08-11T01:18:44.439Z,102026.38
2022-08-11T01:22:17.854Z,102027.41
2022-08-11T01:25:57.538Z,102032.00
2022-08-11T01:29:18.323Z,102025.16
2022-08-11T01:31:57.044Z,102042.78
2022-08-11T01:34:27.771Z,102035.44
2022-08-11T01:37:31.156Z,102041.94
2022-08-11T01:40:23.742Z,102036.75
2022-08-11T01:43:49.758Z,102033.47
2022-08-11T01:46:31.048Z,102036.16
2022-08-11T01:50:09.337Z,102040.47
2022-08-11T01:52:33.716Z,102027.66
2022-08-11T01:55:45.920Z,102029.00
2022-08-11T01:58:44.619Z,102037.09
2022-08-11T02:01:36.460Z,102027.84
2022-08-11T02:04:26.140Z,102031.06
2022-08-11T02:07:40.590Z,102024.22
2022-08-11T02:11:06.769Z,102032.63
2022-08-11T02:14:15.472Z,102029.31
2022-08-11T02:17:19.358Z,102022.78
2022-08-11T02:20:19.850Z,102018.66
2022-08-11T02:24:04.422Z,102021.88
2022-08-11T02:26:26.857Z,102026.44
2022-08-11T02:29:17.037Z,102017.69
2022-08-11T02:32:30.640Z,102024.75
2022-08-11T02:35:23.428Z,102026.84
2022-08-11T02:38:18.467Z,102022.50
2022-08-11T02:41:28.491Z,102018.94
2022-08-11T02:44:21.036Z,102023.22
2022-08-11T02:47:25.007Z,102013.47
2022-08-11T02:50:19.752Z,102020.22
2022-08-11T02:53:17.962Z,102018.28
2022-08-11T02:56:29.974Z,102017.72
2022-08-11T02:59:24.897Z,102017.97
2022-08-11T03:02:04.793Z,102012.47
2022-08-11T03:04:59.247Z,102020.03
2022-08-11T03:08:00.450Z,102021.91
2022-08-11T03:11:24.431Z,102023.50
2022-08-11T03:14:52.050Z,102019.41
2022-08-11T03:17:40.438Z,102023.72
2022-08-11T03:20:33.125Z,102025.59
2022-08-11T03:23:23.901Z,102024.41
2022-08-11T03:26:26.584Z,102013.00
2022-08-11T03:29:31.178Z,102025.75
2022-08-11T03:32:27.441Z,102027.88
2022-08-11T03:34:57.756Z,102023.78
2022-08-11T03:38:00.429Z,102022.41
2022-08-11T03:41:49.339Z,102033.81
2022-08-11T03:44:20.984Z,102021.03
2022-08-11T03:47:25.702Z,102022.66
2022-08-11T03:50:33.904Z,102029.16
2022-08-11T03:53:28.167Z,102024.16
2022-08-11T03:56:28.518Z,102030.94
2022-08-11T03:59:36.417Z,102024.72
2022-08-11T04:02:41.357Z,102026.28
2022-08-11T04:05:45.682Z,102034.16
2022-08-11T04:08:44.975Z,102035.78
2022-08-11T04:11:42.276Z,102025.28
2022-08-11T04:15:08.276Z,102026.69
2022-08-11T04:17:51.298Z,102038.34
2022-08-11T04:20:53.575Z,102036.19
2022-08-11T04:24:38.083Z,102038.66
2022-08-11T04:28:06.480Z,102043.81
2022-08-11T04:31:01.237Z,102032.72
2022-08-11T04:34:00.067Z,102037.38
2022-08-11T04:37:34.907Z,102040.66
2022-08-11T04:40:38.127Z,102040.41
2022-08-11T04:44:02.668Z,102036.94
2022-08-11T04:47:13.249Z,102038.06
2022-08-11T04:50:34.451Z,102028.63
2022-08-11T04:53:48.265Z,102034.09
2022-08-11T04:56:44.607Z,102041.19
2022-08-11T04:59:55.871Z,102033.97
2022-08-11T05:02:56.127Z,102042.97
2022-08-11T05:06:00.437Z,102045.22
2022-08-11T05:08:59.447Z,102044.75
2022-08-11T05:12:01.761Z,102049.16
2022-08-11T05:14:58.828Z,102044.09
2022-08-11T05:17:56.841Z,102044.72
2022-08-11T05:20:44.572Z,102048.03
2022-08-11T05:23:31.658Z,102049.19
2022-08-11T05:26:47.916Z,102047.03
2022-08-11T05:29:57.890Z,102043.34
2022-08-11T05:32:50.140Z,102048.03
2022-08-11T05:36:00.473Z,102054.38
2022-08-11T05:38:45.292Z,102049.81
2022-08-11T05:41:32.759Z,102038.72
2022-08-11T05:44:22.533Z,102045.34
2022-08-11T05:47:09.263Z,102044.59
2022-08-11T05:49:57.851Z,102049.81
2022-08-11T05:52:49.184Z,102053.97
2022-08-11T05:55:52.574Z,102058.06
2022-08-11T05:58:42.637Z,102055.69
2022-08-11T06:01:14.753Z,102055.47
2022-08-11T06:04:04.618Z,102055.75
2022-08-11T06:06:32.210Z,102054.47
2022-08-11T06:09:00.693Z,102058.56
2022-08-11T06:11:43.891Z,102060.78
2022-08-11T06:14:13.393Z,102071.66
2022-08-11T06:16:42.854Z,102067.59
2022-08-11T06:19:10.516Z,102065.44
2022-08-11T06:21:38.394Z,102070.09
2022-08-11T06:24:13.713Z,102070.38
2022-08-11T06:29:55.330Z,102058.94
2022-08-11T06:32:33.145Z,102062.19
2022-08-11T06:35:33.952Z,102068.16
2022-08-11T06:38:23.774Z,102058.59
2022-08-11T06:41:25.473Z,102050.16
2022-08-11T06:44:13.789Z,102059.13
2022-08-11T06:46:42.298Z,102054.44
2022-08-11T06:49:31.598Z,102054.94
2022-08-11T06:52:07.682Z,102051.59
2022-08-11T06:55:06.387Z,102060.78
2022-08-11T06:57:58.333Z,102056.94
2022-08-11T07:00:29.464Z,102063.63
2022-08-11T07:03:17.208Z,102052.59
2022-08-11T07:06:14.697Z,102041.00
2022-08-11T07:09:32.994Z,102047.69
2022-08-11T07:12:29.415Z,102040.72
2022-08-11T07:15:16.873Z,102037.84
2022-08-11T07:18:12.321Z,102027.50
2022-08-11T07:21:02.128Z,102033.25
2022-08-11T07:23:52.828Z,102040.34
2022-08-11T07:26:43.390Z,102030.75
2022-08-11T07:29:14.594Z,102029.38
2022-08-11T07:31:54.241Z,102024.91
2022-08-11T07:34:36.647Z,102017.50
2022-08-11T07:37:18.219Z,102019.84
2022-08-11T07:39:48.374Z,102022.72
2022-08-11T07:42:24.216Z,102011.88
2022-08-11T07:45:14.618Z,102008.97
2022-08-11T07:48:01.472Z,102001.63
2022-08-11T07:50:51.771Z,102008.59
2022-08-11T07:53:21.997Z,102001.09
2022-08-11T07:55:54.240Z,102014.59
2022-08-11T07:58:45.487Z,102003.44
2022-08-11T08:01:42.038Z,101996.09
2022-08-11T08:04:30.789Z,102001.88
2022-08-11T08:07:17.431Z,101994.69
2022-08-11T08:10:04.539Z,102000.84
2022-08-11T08:12:51.050Z,101991.09
2022-08-11T08:15:39.575Z,101987.72
2022-08-11T08:18:26.472Z,101992.84
2022-08-11T08:21:11.990Z,101986.84
2022-08-11T08:23:43.156Z,101979.00
2022-08-11T08:26:33.718Z,101979.00
2022-08-11T08:29:25.558Z,101969.75
2022-08-11T08:31:53.960Z,101973.25
2022-08-11T08:34:21.767Z,101984.56
2022-08-11T08:36:51.074Z,101962.38
2022-08-11T08:39:22.899Z,101970.69
2022-08-11T08:41:56.619Z,101966.66
2022-08-11T08:44:42.059Z,101962.09
2022-08-11T08:47:42.470Z,101947.81
2022-08-11T08:50:16.875Z,101957.09
2022-08-11T08:53:05.841Z,101954.31
2022-08-11T08:55:33.884Z,101947.31
2022-08-11T08:58:02.411Z,101958.22
2022-08-11T09:00:41.869Z,101950.78
2022-08-11T09:03:36.448Z,101933.53
2022-08-11T09:05:58.574Z,101929.13
2022-08-11T09:08:25.650Z,101925.41
2022-08-11T09:11:14.556Z,101929.63
2022-08-11T09:13:44.383Z,101916.59
2022-08-11T09:16:12.335Z,101922.69
2022-08-11T09:18:44.517Z,101915.09
2022-08-11T09:21:42.523Z,101912.22
2022-08-11T09:24:26.580Z,101926.84
2022-08-11T09:27:00.124Z,101919.66
2022-08-11T09:29:29.273Z,101913.22
2022-08-11T09:31:58.310Z,101919.97
2022-08-11T09:34:27.001Z,101902.91
2022-08-11T09:37:13.586Z,101901.09
2022-08-11T09:40:19.212Z,101899.34
2022-08-11T09:43:05.195Z,101910.06
2022-08-11T09:45:39.981Z,101894.75
2022-08-11T09:48:08.176Z,101881.66
2022-08-11T09:50:38.209Z,101882.50
2022-08-11T09:53:36.756Z,101888.28
2022-08-11T09:55:55.392Z,101888.34
2022-08-11T09:58:42.785Z,101888.19
2022-08-11T10:01:27.270Z,101879.78
2022-08-11T10:04:10.441Z,101885.88
2022-08-11T10:06:58.208Z,101873.13
2022-08-11T10:09:26.429Z,101878.00
2022-08-11T10:11:58.358Z,101874.97
2022-08-11T10:14:46.468Z,101875.94
2022-08-11T10:17:17.305Z,101874.59
2022-08-11T10:20:03.946Z,101875.94
2022-08-11T10:22:50.468Z,101877.78
2022-08-11T10:25:36.558Z,101880.59
2022-08-11T10:28:28.459Z,101875.63
2022-08-11T10:31:14.757Z,101879.47
2022-08-11T10:34:01.912Z,101873.28
2022-08-11T10:36:42.447Z,101871.47
2022-08-11T10:39:12.147Z,101861.09
2022-08-11T10:42:06.948Z,101855.78
2022-08-11T10:44:47.959Z,101848.88
2022-08-11T10:47:36.930Z,101849.53
2022-08-11T10:50:27.169Z,101853.19
2022-08-11T10:53:16.078Z,101846.66
2022-08-11T10:58:51.130Z,101835.66
2022-08-11T11:01:25.186Z,101842.19
2022-08-11T11:03:58.952Z,101834.22
2022-08-11T11:06:55.057Z,101836.06
2022-08-11T11:09:32.616Z,101833.41
2022-08-11T11:13:01.057Z,101840.59
2022-08-11T11:15:51.536Z,101821.06
2022-08-11T11:18:30.159Z,101823.66
2022-08-11T11:21:08.746Z,101820.28
2022-08-11T11:24:12.944Z,101822.78
2022-08-11T11:27:12.403Z,101821.13
2022-08-11T11:30:02.883Z,101815.63
2022-08-11T11:32:35.958Z,101804.78
2022-08-11T11:35:14.017Z,101806.16
2022-08-11T11:38:03.765Z,101799.91
2022-08-11T11:40:33.016Z,101797.88
2022-08-11T11:43:00.597Z,101785.38
2022-08-11T11:45:27.867Z,101786.34
2022-08-11T11:47:59.429Z,101793.84
2022-08-11T11:50:37.144Z,101793.06
2022-08-11T11:53:07.653Z,101796.03
2022-08-11T11:55:36.064Z,101786.59
2022-08-11T11:58:23.948Z,101783.31
2022-08-11T12:01:11.398Z,101778.97
2022-08-11T12:03:40.816Z,101772.81
2022-08-11T12:06:09.606Z,101773.75
2022-08-11T12:08:37.821Z,101774.47
2022-08-11T12:11:28.265Z,101758.97
2022-08-11T12:13:59.056Z,101761.78
2022-08-11T12:16:33.912Z,101757.91
2022-08-11T12:19:13.752Z,101752.41
2022-08-11T12:22:00.728Z,101754.91
2022-08-11T12:24:49.210Z,101745.91
2022-08-11T12:27:24.178Z,101736.09
2022-08-11T12:30:00.567Z,101735.63
2022-08-11T12:32:33.285Z,101730.09
2022-08-11T12:35:01.651Z,101739.03
2022-08-11T12:37:39.800Z,101735.31
2022-08-11T12:41:11.789Z,101731.84
2022-08-11T12:43:56.454Z,101728.63
2022-08-11T12:46:37.958Z,101723.06
2022-08-11T12:49:39.781Z,101713.91
2022-08-11T12:52:30.414Z,101718.75
2022-08-11T12:55:13.485Z,101719.31
2022-08-11T12:58:06.691Z,101718.84
2022-08-11T13:00:52.535Z,101713.53
2022-08-11T13:03:40.474Z,101706.63
2022-08-11T13:06:08.964Z,101702.38
2022-08-11T13:08:39.469Z,101696.38
2022-08-11T13:11:55.803Z,101698.03
2022-08-11T13:14:16.811Z,101685.31
2022-08-11T13:17:21.736Z,101696.00
2022-08-11T13:20:13.641Z,101693.38
2022-08-11T13:22:45.917Z,101684.13
2022-08-11T13:25:18.636Z,101692.16
2022-08-11T13:27:49.032Z,101689.94
2022-08-11T13:30:53.131Z,101690.50
2022-08-11T13:33:20.534Z,101683.63
2022-08-11T13:35:52.163Z,101683.84
2022-08-11T13:38:22.116Z,101681.41
2022-08-11T13:40:56.112Z,101665.44
2022-08-11T13:43:24.383Z,101675.44
2022-08-11T13:46:13.564Z,101660.75
2022-08-11T13:48:42.207Z,101666.50
2022-08-11T13:51:34.149Z,101657.63
2022-08-11T13:54:18.732Z,101655.31
2022-08-11T13:56:50.064Z,101653.97
2022-08-11T13:59:22.997Z,101649.22
2022-08-11T14:02:28.156Z,101656.78
2022-08-11T14:05:28.401Z,101661.41
2022-08-11T14:08:06.136Z,101654.81
2022-08-11T14:10:35.829Z,101651.47
2022-08-11T14:13:42.266Z,101651.84
2022-08-11T14:16:31.226Z,101652.81
2022-08-11T14:19:04.956Z,101648.88
2022-08-11T14:21:55.992Z,101648.38
2022-08-11T14:24:23.851Z,101651.75
2022-08-11T14:26:53.111Z,101645.28
2022-08-11T14:29:24.072Z,101641.91
2022-08-11T14:31:57.555Z,101635.78
2022-08-11T14:34:29.636Z,101634.28
2022-08-11T14:37:01.708Z,101633.72
2022-08-11T14:39:36.041Z,101642.09
2022-08-11T14:42:24.894Z,101636.88
2022-08-11T14:45:16.601Z,101636.75
2022-08-11T14:47:48.643Z,101641.47
2022-08-11T14:50:27.431Z,101631.53
2022-08-11T14:53:09.041Z,101644.81
2022-08-11T14:55:58.263Z,101642.00
2022-08-11T14:58:28.778Z,101640.72
2022-08-11T15:01:00.527Z,101637.56
2022-08-11T15:03:33.470Z,101627.81
2022-08-11T15:06:02.670Z,101627.63
2022-08-11T15:08:52.583Z,101624.75
2022-08-11T15:11:41.648Z,101631.78
2022-08-11T15:14:11.261Z,101629.59
2022-08-11T15:17:01.056Z,101621.47
2022-08-11T15:19:30.186Z,101621.50
2022-08-11T15:22:32.001Z,101621.94
2022-08-11T15:24:59.804Z,101616.44
2022-08-11T15:27:48.416Z,101615.03
2022-08-11T15:30:34.674Z,101617.47
2022-08-11T15:33:47.037Z,101609.50
2022-08-11T15:36:53.563Z,101615.31
2022-08-11T15:39:27.604Z,101602.63
2022-08-11T15:42:22.574Z,101608.78
2022-08-11T15:45:15.165Z,101609.50
2022-08-11T15:48:05.430Z,101606.59
2022-08-11T15:50:39.769Z,101616.97
2022-08-11T15:53:33.416Z,101604.16
2022-08-11T15:56:02.713Z,101610.81
2022-08-11T15:59:10.913Z,101600.16
2022-08-11T16:02:04.474Z,101599.06
2022-08-11T16:04:32.702Z,101602.19
2022-08-11T16:07:11.194Z,101601.22
2022-08-11T16:09:51.697Z,101599.81
2022-08-11T16:12:29.634Z,101598.34
2022-08-11T16:15:26.206Z,101595.16
2022-08-11T16:17:59.834Z,101591.28
2022-08-11T16:20:29.482Z,101594.84
2022-08-11T16:23:03.294Z,101597.97
2022-08-11T16:26:30.491Z,101585.00
2022-08-11T16:28:24.662Z,101592.59
2022-08-11T16:30:53.549Z,101591.34
2022-08-11T16:33:49.441Z,101592.09
2022-08-11T16:36:30.850Z,101597.69
2022-08-11T16:38:59.955Z,101607.66
2022-08-11T16:41:50.573Z,101602.66
2022-08-11T16:44:38.478Z,101610.50
2022-08-11T16:47:16.435Z,101605.41
2022-08-11T16:49:53.172Z,101607.91
2022-08-11T16:52:24.587Z,101608.72
2022-08-11T16:54:53.692Z,101615.44
2022-08-11T16:57:45.172Z,101610.97
2022-08-11T17:03:27.336Z,101608.56
2022-08-11T17:06:13.242Z,101608.22
2022-08-11T17:09:11.793Z,101609.44
2022-08-11T17:12:04.059Z,101610.56
2022-08-11T17:15:01.024Z,101621.94
2022-08-11T17:17:33.205Z,101623.66
2022-08-11T17:20:38.813Z,101623.25
2022-08-11T17:23:14.110Z,101620.66
2022-08-11T17:26:03.894Z,101616.47
2022-08-11T17:28:31.065Z,101618.22
2022-08-11T17:31:22.424Z,101620.91
2022-08-11T17:34:10.538Z,101623.75
2022-08-11T17:36:44.603Z,101622.31
2022-08-11T17:39:13.717Z,101625.66
2022-08-11T17:42:00.773Z,101633.78
2022-08-11T17:44:47.142Z,101626.31
2022-08-11T17:47:33.558Z,101637.53
2022-08-11T17:50:16.231Z,101630.47
2022-08-11T17:53:05.579Z,101635.41
2022-08-11T17:55:54.057Z,101630.38
2022-08-11T17:58:42.863Z,101637.22
2022-08-11T18:01:12.041Z,101634.13
2022-08-11T18:03:41.883Z,101633.53
2022-08-11T18:06:29.647Z,101640.78
2022-08-11T18:09:24.534Z,101643.75
2022-08-11T18:12:12.934Z,101642.50
2022-08-11T18:15:04.345Z,101653.63
2022-08-11T18:17:50.372Z,101648.22
2022-08-11T18:20:37.062Z,101657.34
2022-08-11T18:23:40.514Z,101651.50
2022-08-11T18:26:38.099Z,101667.16
2022-08-11T18:29:26.636Z,101668.44
2022-08-11T18:32:21.823Z,101668.53
2022-08-11T18:35:11.377Z,101670.88
2022-08-11T18:38:05.772Z,101676.13
2022-08-11T18:40:54.290Z,101676.97
2022-08-11T18:43:43.279Z,101678.13
2022-08-11T18:46:32.109Z,101676.69
2022-08-11T18:49:26.617Z,101677.22
2022-08-11T18:52:23.393Z,101683.88
2022-08-11T18:55:10.891Z,101680.41
2022-08-11T18:58:01.037Z,101681.69
2022-08-11T19:00:48.035Z,101693.16
2022-08-11T19:03:43.386Z,101689.44
2022-08-11T19:06:40.956Z,101689.84
2022-08-11T19:09:32.073Z,101699.34
2022-08-11T19:12:20.012Z,101695.06
2022-08-11T19:15:08.942Z,101697.28
2022-08-11T19:17:59.173Z,101698.53
2022-08-11T19:20:49.058Z,101698.59
2022-08-11T19:23:39.531Z,101698.03
2022-08-11T19:26:26.367Z,101706.84
2022-08-11T19:30:06.913Z,101694.84
2022-08-11T19:32:21.440Z,101702.56
2022-08-11T19:35:08.332Z,101701.69
2022-08-11T19:37:57.840Z,101702.75
2022-08-11T19:40:44.222Z,101700.56
2022-08-11T19:43:31.270Z,101695.63
2022-08-11T19:46:19.107Z,101697.78
2022-08-11T19:49:12.061Z,101705.41
2022-08-11T19:51:59.027Z,101691.38
2022-08-11T19:54:49.201Z,101704.19
2022-08-11T19:57:40.132Z,101698.41
2022-08-11T20:03:29.106Z,101702.06
2022-08-11T20:06:25.335Z,101703.41
2022-08-11T20:09:18.228Z,101706.00
2022-08-11T20:12:10.005Z,101699.41
2022-08-11T20:14:59.562Z,101711.53
2022-08-11T20:17:51.978Z,101708.75
2022-08-11T20:20:40.235Z,101702.34
2022-08-11T20:23:29.526Z,101712.06
2022-08-11T20:26:30.818Z,101712.44
2022-08-11T20:29:19.759Z,101713.19
2022-08-11T20:32:09.303Z,101721.75
2022-08-11T20:34:58.706Z,101727.09
2022-08-11T20:37:51.245Z,101734.25
2022-08-11T20:40:41.467Z,101734.94
2022-08-11T20:44:06.984Z,101733.38
2022-08-11T20:46:44.237Z,101743.31
2022-08-11T20:49:45.970Z,101746.78
2022-08-11T20:52:40.825Z,101758.53
2022-08-11T20:55:51.718Z,101757.28
2022-08-11T20:59:10.929Z,101755.78
2022-08-11T21:01:44.937Z,101759.63
2022-08-11T21:04:33.060Z,101752.31
2022-08-11T21:07:27.865Z,101753.56
2022-08-11T21:10:23.763Z,101758.22
2022-08-11T21:13:25.234Z,101759.03
2022-08-11T21:16:25.329Z,101757.13
2022-08-11T21:20:00.490Z,101758.97
2022-08-11T21:23:06.260Z,101765.25
2022-08-11T21:25:59.247Z,101764.44
2022-08-11T21:28:47.473Z,101772.63
2022-08-11T21:31:34.233Z,101757.63
2022-08-11T21:34:21.977Z,101764.72
2022-08-11T21:37:09.183Z,101772.63
2022-08-11T21:39:56.313Z,101779.19
2022-08-11T21:42:43.214Z,101769.16
2022-08-11T21:45:29.684Z,101767.88
2022-08-11T21:48:15.939Z,101774.72
2022-08-11T21:51:01.664Z,101779.66
2022-08-11T21:53:47.749Z,101776.72
2022-08-11T21:56:33.652Z,101763.13
2022-08-11T21:59:21.251Z,101771.59
2022-08-11T22:02:12.556Z,101768.34
2022-08-11T22:05:00.880Z,101781.25
2022-08-11T22:07:48.444Z,101766.03
2022-08-11T22:10:42.503Z,101764.75
2022-08-11T22:13:33.255Z,101766.94
2022-08-11T22:16:20.029Z,101770.53
2022-08-11T22:19:09.465Z,101768.09
2022-08-11T22:22:02.892Z,101768.97
2022-08-11T22:24:51.865Z,101769.31
2022-08-11T22:27:39.113Z,101770.44
2022-08-11T22:30:30.932Z,101764.53
2022-08-11T22:33:24.404Z,101765.66
2022-08-11T22:36:13.666Z,101765.47
2022-08-11T22:39:01.308Z,101768.00
2022-08-11T22:41:47.169Z,101766.13
2022-08-11T22:44:32.658Z,101764.84
2022-08-11T22:47:20.640Z,101775.78
2022-08-11T22:50:11.844Z,101766.78
2022-08-11T22:52:58.757Z,101770.94
2022-08-11T22:55:45.032Z,101773.97
2022-08-11T22:58:32.828Z,101777.31
2022-08-11T23:01:20.236Z,101776.53
2022-08-11T23:04:08.497Z,101787.16
2022-08-11T23:06:54.531Z,101786.66
2022-08-11T23:09:42.796Z,101799.19
2022-08-11T23:12:29.127Z,101790.81
2022-08-11T23:15:15.521Z,101782.41
2022-08-11T23:18:01.749Z,101788.94
2022-08-11T23:20:49.473Z,101791.94
2022-08-11T23:23:38.062Z,101795.47
2022-08-11T23:26:24.710Z,101784.63
2022-08-11T23:29:12.078Z,101792.00
2022-08-11T23:31:57.931Z,101796.09
2022-08-11T23:35:04.193Z,101795.00
2022-08-11T23:37:59.776Z,101796.34
2022-08-11T23:40:45.720Z,101797.19
2022-08-11T23:43:42.298Z,101803.72
2022-08-11T23:46:28.988Z,101794.22
2022-08-11T23:49:18.255Z,101797.22
2022-08-11T23:52:04.431Z,101788.25
2022-08-11T23:54:52.321Z,101791.81
2022-08-11T23:57:38.278Z,101791.28
